Pride Of Kent — MQCJ2 — position and weather

sailwx.info

Track history (hours):
 
Tides and Currents Weather Stations Pressure Air Temp Water Temp Dewpoint Dewpoint Depression Visibility Wind Speed Wind Dir Waves Ship Positions

Pride Of Kent

Operator: P & O Ferries

Last reported at 2016-Apr-30 16:34 UTC. Time now 2016-Apr-30 16:55 UTC.
Position N 50°58' E 001°51'.

Length 180 m; draft 6 m.

Type: Passenger vessel. MMSI: 232009000.

Date/timePositionNaut miles runAvg speedWind from/ knotsBaromVisibWave heightAir tempDewpointWater temp
2016-Apr-30 16:34N 50°58' E 001°51'1313.0
2016-Apr-30 15:33N 51°02' E 001°32'9 6.1
2016-Apr-30 14:06N 51°07' E 001°20'712.9
2016-Apr-30 13:33N 51°04' E 001°30'1514.9
2016-Apr-30 12:34N 50°58' E 001°52'2 1.6
2016-Apr-30 11:34N 50°58' E 001°49'1817.6
2016-Apr-30 10:33N 51°06' E 001°24'3 2.4
2016-Apr-30 09:26N 51°07' E 001°20'1012.0
2016-Apr-30 08:34N 51°03' E 001°35'1111.1
2016-Apr-30 07:33N 50°58' E 001°51'3 3.4
2016-Apr-30 06:34N 50°58' E 001°46'1918.6
2016-Apr-30 05:33N 51°07' E 001°20'0 0.0
2016-Apr-30 04:24N 51°07' E 001°20'1012.5
2016-Apr-30 03:33N 51°05' E 001°36'1111.5
2016-Apr-30 02:34N 50°58' E 001°51'0 0.0
2016-Apr-30 01:34N 50°58' E 001°51'1414.1
2016-Apr-30 00:33N 51°01' E 001°29'8 6.1
2016-Apr-29 23:12N 51°07' E 001°20'812.2
2016-Apr-29 22:33N 51°06' E 001°32'1413.9
2016-Apr-29 21:33N 50°58' E 001°51'4 4.1
2016-Apr-29 20:33N 50°58' E 001°45'1818.0
2016-Apr-29 19:33N 51°07' E 001°20'2 1.7
2016-Apr-29 18:33N 51°07' E 001°23'1817.6
2016-Apr-29 17:34N 50°58' E 001°47'3 3.1
2016-Apr-29 16:33N 50°58' E 001°52'1515.5
2016-Apr-29 15:33N 51°04' E 001°29'7 6.6
2016-Apr-29 14:32N 51°07' E 001°20'1111.0
2016-Apr-29 13:33N 51°03' E 001°35'1111.2
2016-Apr-29 12:33N 50°58' E 001°52'3 2.5
2016-Apr-29 11:33N 50°58' E 001°48'1717.4
2016-Apr-29 10:33N 51°06' E 001°23'2 2.2
2016-Apr-29 09:32N 51°07' E 001°20'1515.0
2016-Apr-29 08:33N 50°60' E 001°40'7 7.2
2016-Apr-29 07:33N 50°58' E 001°51'6 5.8
2016-Apr-29 06:34N 50°58' E 001°42'17 7.5
2016-Apr-29 04:21N 51°07' E 001°20'911.9
2016-Apr-29 03:33N 51°04' E 001°34'1212.2
2016-Apr-29 02:33N 50°58' E 001°51'0 0.0
2016-Apr-29 01:33N 50°58' E 001°51'1110.9
2016-Apr-29 00:33N 50°59' E 001°34'12 3.9
2016-Apr-28 21:33N 51°07' E 001°20'1 0.3
2016-Apr-28 19:33N 51°07' E 001°21'1817.9
2016-Apr-28 18:33N 50°58' E 001°45'4 3.9
2016-Apr-28 17:33N 50°58' E 001°52'1211.7
2016-Apr-28 16:34N 50°60' E 001°33'1110.5
2016-Apr-28 15:29N 51°07' E 001°20'2 1.7
2016-Apr-28 14:33N 51°07' E 001°23'1817.7
2016-Apr-28 13:33N 50°58' E 001°47'3 2.9
2016-Apr-28 12:33N 50°58' E 001°51'9 8.6
2016-Apr-28 11:34N 50°59' E 001°38'1413.6
2016-Apr-28 10:33N 51°07' E 001°20'1 0.5
2016-Apr-28 09:33N 51°07' E 001°20'1716.9
2016-Apr-28 08:33N 50°59' E 001°43'5 5.4
2016-Apr-28 07:33N 50°58' E 001°52'7 7.3
2016-Apr-28 06:33N 50°59' E 001°40'15 3.7
2016-Apr-28 02:25N 51°07' E 001°20'0 0.0
2016-Apr-28 01:30N 51°07' E 001°20'0 0.0
2016-Apr-28 00:26N 51°07' E 001°20'8 9.7
2016-Apr-27 23:33N 51°04' E 001°32'1312.8
2016-Apr-27 22:32N 50°58' E 001°51'3 3.1
2016-Apr-27 21:33N 50°58' E 001°46'1817.9
2016-Apr-27 20:33N 51°07' E 001°22'1 1.0
2016-Apr-27 19:31N 51°07' E 001°20'1414.8
2016-Apr-27 18:33N 51°01' E 001°40'7 7.2
2016-Apr-27 17:33N 50°58' E 001°51'1111.3
2016-Apr-27 16:34N 51°01' E 001°34'11 5.2
2016-Apr-27 14:31N 51°07' E 001°20'1212.1
2016-Apr-27 13:33N 51°02' E 001°36'1010.3
2016-Apr-27 12:33N 50°58' E 001°52'0 0.4
2016-Apr-27 11:33N 50°58' E 001°51'1616.3
2016-Apr-27 10:33N 51°04' E 001°27'5 4.8
2016-Apr-27 09:26N 51°07' E 001°20'1415.6
2016-Apr-27 08:33N 51°01' E 001°40'8 7.8
2016-Apr-27 07:33N 50°58' E 001°51'4 4.1
2016-Apr-27 06:33N 50°58' E 001°44'1817.8
2016-Apr-27 05:33N 51°07' E 001°20'0 0.0
2016-Apr-27 04:18N 51°07' E 001°20'912.1
2016-Apr-27 03:33N 51°03' E 001°33'1312.6
2016-Apr-27 02:34N 50°58' E 001°51'0 0.0
2016-Apr-27 01:33N 50°58' E 001°51'1717.2
2016-Apr-27 00:33N 51°04' E 001°26'5 4.3
2016-Apr-26 23:28N 51°07' E 001°20'1213.6
2016-Apr-26 22:33N 51°01' E 001°37'9 9.3
2016-Apr-26 21:33N 50°58' E 001°51'8 7.9
2016-Apr-26 20:33N 50°58' E 001°38'1514.4
2016-Apr-26 19:32N 51°07' E 001°20'4 3.7
2016-Apr-26 18:33N 51°07' E 001°26'1717.5
2016-Apr-26 17:33N 50°58' E 001°50'1 1.1
2016-Apr-26 16:33N 50°58' E 001°52'1515.2
2016-Apr-26 15:33N 51°03' E 001°29'7 6.3
2016-Apr-26 14:26N 51°07' E 001°20'1011.2
2016-Apr-26 13:33N 51°03' E 001°34'1212.2
2016-Apr-26 12:33N 50°58' E 001°52'1 0.5
2016-Apr-26 11:33N 50°58' E 001°51'1515.4
2016-Apr-26 10:33N 51°03' E 001°28'6 4.9
2016-Apr-26 09:15N 51°07' E 001°20'1014.2
2016-Apr-26 08:33N 51°03' E 001°34'1211.6
2016-Apr-26 07:33N 50°58' E 001°51'4 4.1
2016-Apr-26 06:33N 50°58' E 001°45'1817.9
2016-Apr-26 05:33N 51°07' E 001°20'0 0.1
2016-Apr-26 04:15N 51°07' E 001°20'912.9
2016-Apr-26 03:33N 51°05' E 001°34'1313.1
2016-Apr-26 02:33N 50°58' E 001°51'0 0.0
2016-Apr-26 01:33N 50°58' E 001°51'1616.2
2016-Apr-26 00:33N 51°04' E 001°27'6 4.8
2016-Apr-25 23:21N 51°07' E 001°20'1113.5
2016-Apr-25 22:33N 51°04' E 001°36'1110.9
2016-Apr-25 21:33N 50°58' E 001°51'4 3.5
2016-Apr-25 20:33N 50°58' E 001°45'1817.7
2016-Apr-25 19:33N 51°07' E 001°21'1 0.8
2016-Apr-25 18:33N 51°07' E 001°20'1717.0
2016-Apr-25 17:33N 50°59' E 001°43'5 5.3
2016-Apr-25 16:33N 50°58' E 001°52'1212.1
2016-Apr-25 15:33N 51°00' E 001°33'1110.3
2016-Apr-25 14:30N 51°07' E 001°20'6 6.7
2016-Apr-25 13:33N 51°05' E 001°30'1515.5
2016-Apr-25 12:33N 50°58' E 001°51'0 0.1
2016-Apr-25 11:33N 50°58' E 001°51'1717.5
2016-Apr-25 10:33N 51°05' E 001°26'4 4.3
2016-Apr-25 09:32N 51°07' E 001°20'1515.2
2016-Apr-25 08:33N 50°60' E 001°41'7 7.1
2016-Apr-25 07:33N 50°58' E 001°52'5 5.4
2016-Apr-25 06:33N 50°58' E 001°43'1716.0
2016-Apr-25 05:29N 51°07' E 001°20'0 0.0
2016-Apr-25 04:32N 51°07' E 001°20'8 8.6
2016-Apr-25 03:34N 51°05' E 001°33'1313.1
2016-Apr-25 02:33N 50°58' E 001°51'0 0.0
2016-Apr-25 01:33N 50°58' E 001°51'1414.5
2016-Apr-25 00:33N 51°02' E 001°30'8 7.7
2016-Apr-24 23:33N 51°07' E 001°20'8 8.5
2016-Apr-24 22:33N 51°04' E 001°32'1313.2
2016-Apr-24 21:33N 50°58' E 001°51'0 0.2
2016-Apr-24 20:34N 50°58' E 001°51'1616.1
2016-Apr-24 19:33N 51°04' E 001°27'6 5.2
2016-Apr-24 18:29N 51°07' E 001°20'1011.4
2016-Apr-24 17:34N 51°03' E 001°35'1211.5
2016-Apr-24 16:33N 50°58' E 001°52'8 7.6
2016-Apr-24 15:33N 50°58' E 001°40'1510.5
2016-Apr-24 14:06N 51°07' E 001°20'610.6
2016-Apr-24 13:33N 51°05' E 001°29'1615.8
2016-Apr-24 12:33N 50°58' E 001°51'1 1.4
2016-Apr-24 11:33N 50°58' E 001°49'1717.0
2016-Apr-24 10:33N 51°05' E 001°24'4 3.4
2016-Apr-24 09:30N 51°07' E 001°20'1414.4
2016-Apr-24 08:33N 51°01' E 001°39'8 8.1
2016-Apr-24 07:33N 50°58' E 001°51'9 8.7
2016-Apr-24 06:33N 50°60' E 001°38'1312.6
2016-Apr-24 05:30N 51°07' E 001°20'0 0.0
2016-Apr-24 04:33N 51°07' E 001°20'0 0.0
2016-Apr-24 03:32N 51°07' E 001°20'0 0.0
2016-Apr-24 02:29N 51°07' E 001°20'0 0.0
2016-Apr-24 01:04N 51°07' E 001°20'0 0.0
2016-Apr-24 00:31N 51°07' E 001°20'0 0.0
2016-Apr-23 23:31N 51°07' E 001°20'0 0.0
2016-Apr-23 22:29N 51°07' E 001°20'0 0.0
2016-Apr-23 21:32N 51°07' E 001°20'0 0.0
2016-Apr-23 20:26N 51°07' E 001°20'0 0.0
2016-Apr-23 19:32N 51°07' E 001°20'1 0.9
2016-Apr-23 18:34N 51°07' E 001°22'1918.8
2016-Apr-23 17:34N 50°58' E 001°48'2 2.5
2016-Apr-23 16:33N 50°58' E 001°52'1515.1
2016-Apr-23 15:34N 51°04' E 001°30'7 6.2
2016-Apr-23 14:27N 51°07' E 001°20'1214.1
2016-Apr-23 13:33N 51°02' E 001°38'9 9.4
2016-Apr-23 12:33N 50°58' E 001°52'3 3.0
2016-Apr-23 11:33N 50°58' E 001°47'1918.9
2016-Apr-23 10:33N 51°07' E 001°21'0 0.4
2016-Apr-23 09:32N 51°07' E 001°20'1515.6
2016-Apr-23 08:33N 50°60' E 001°41'7 6.9
2016-Apr-23 07:34N 50°58' E 001°52'7 6.9
2016-Apr-23 06:34N 50°58' E 001°41'1615.1
2016-Apr-23 05:30N 51°07' E 001°20'0 0.0
2016-Apr-23 04:23N 51°07' E 001°20'910.6
2016-Apr-23 03:34N 51°04' E 001°33'1312.5
2016-Apr-23 02:32N 50°58' E 001°51'3 2.7
2016-Apr-23 01:33N 50°58' E 001°47'1918.9
2016-Apr-23 00:33N 51°07' E 001°21'0 0.2
2016-Apr-22 23:33N 51°07' E 001°20'1616.5
2016-Apr-22 22:34N 50°59' E 001°43'5 5.4
2016-Apr-22 21:33N 50°58' E 001°51'10 9.8
2016-Apr-22 20:33N 50°59' E 001°36'1312.4
2016-Apr-22 19:31N 51°07' E 001°20'4 4.5
2016-Apr-22 18:33N 51°06' E 001°27'1817.5
2016-Apr-22 17:34N 50°58' E 001°52'1 0.7
2016-Apr-22 16:33N 50°58' E 001°50'1716.8
2016-Apr-22 15:34N 51°05' E 001°26'4 3.9
2016-Apr-22 14:25N 51°07' E 001°20'1011.3
2016-Apr-22 13:33N 51°04' E 001°35'1212.3
2016-Apr-22 12:33N 50°58' E 001°52'2 2.2
2016-Apr-22 11:33N 50°58' E 001°48'1717.0
2016-Apr-22 10:33N 51°06' E 001°24'3 2.8
2016-Apr-22 09:29N 51°07' E 001°20'1313.7
2016-Apr-22 08:34N 51°02' E 001°38'9 9.0
2016-Apr-22 07:33N 50°58' E 001°51'7 6.6
2016-Apr-22 06:33N 50°58' E 001°41'1612.9
2016-Apr-22 05:20N 51°07' E 001°20'0 0.0
2016-Apr-22 04:32N 51°07' E 001°20'8 8.6
2016-Apr-22 03:33N 51°04' E 001°32'1313.3
2016-Apr-22 02:33N 50°58' E 001°51'1 0.8
2016-Apr-22 01:33N 50°58' E 001°50'1818.4
2016-Apr-22 00:33N 51°06' E 001°23'2 2.4
2016-Apr-21 23:34N 51°07' E 001°20'1717.2
2016-Apr-21 22:34N 50°59' E 001°44'5 4.2
2016-Apr-21 21:27N 50°58' E 001°51'1214.0
2016-Apr-21 20:34N 51°01' E 001°32'10 6.8
2016-Apr-21 19:05N 51°07' E 001°20'612.1
2016-Apr-21 18:34N 51°05' E 001°29'1615.5
2016-Apr-21 17:33N 50°58' E 001°52'2 1.7
2016-Apr-21 16:33N 50°58' E 001°49'1716.8
2016-Apr-21 15:33N 51°05' E 001°24'4 3.4
2016-Apr-21 14:31N 51°07' E 001°20'1515.8
2016-Apr-21 13:33N 51°00' E 001°41'7 7.0
2016-Apr-21 12:34N 50°58' E 001°52'10 9.6
2016-Apr-21 11:33N 51°01' E 001°37'13 6.3
2016-Apr-21 09:33N 51°07' E 001°20'1515.0
2016-Apr-21 08:34N 50°60' E 001°41'7 6.8
2016-Apr-21 07:33N 50°58' E 001°51'8 8.2
2016-Apr-21 06:33N 50°59' E 001°38'14 7.0
2016-Apr-21 04:32N 51°07' E 001°20'1212.9
2016-Apr-21 03:34N 51°01' E 001°37'9 9.2
2016-Apr-21 02:33N 50°58' E 001°51'5 4.9
2016-Apr-21 01:34N 50°58' E 001°44'1717.4
2016-Apr-21 00:34N 51°07' E 001°20'0 0.4
2016-Apr-20 23:34N 51°07' E 001°21'1817.6
2016-Apr-20 22:33N 50°58' E 001°45'4 3.9
2016-Apr-20 21:33N 50°58' E 001°51'1111.3
2016-Apr-20 20:33N 51°01' E 001°34'11 9.5
2016-Apr-20 19:25N 51°07' E 001°20'7 7.7
2016-Apr-20 18:33N 51°05' E 001°30'1514.9
2016-Apr-20 17:31N 50°58' E 001°52'  
Track history (hours):
 
Tides and Currents Weather Stations Pressure Air Temp Water Temp Dewpoint Dewpoint Depression Visibility Wind Speed Wind Dir Waves Ship Positions

Pride Of Kent

Operator: P & O Ferries

Last reported at 2016-Apr-30 16:34 UTC. Time now 2016-Apr-30 16:55 UTC.
Position N 50°58' E 001°51'.

Length 180 m; draft 6 m.

Type: Passenger vessel. MMSI: 232009000.

Date/timePositionNaut miles runAvg speedWind from/ knotsBaromVisibWave heightAir tempDewpointWater temp
2016-Apr-30 16:34N 50°58' E 001°51'1313.0
2016-Apr-30 15:33N 51°02' E 001°32'9 6.1
2016-Apr-30 14:06N 51°07' E 001°20'712.9
2016-Apr-30 13:33N 51°04' E 001°30'1514.9
2016-Apr-30 12:34N 50°58' E 001°52'2 1.6
2016-Apr-30 11:34N 50°58' E 001°49'1817.6
2016-Apr-30 10:33N 51°06' E 001°24'3 2.4
2016-Apr-30 09:26N 51°07' E 001°20'1012.0
2016-Apr-30 08:34N 51°03' E 001°35'1111.1
2016-Apr-30 07:33N 50°58' E 001°51'3 3.4
2016-Apr-30 06:34N 50°58' E 001°46'1918.6
2016-Apr-30 05:33N 51°07' E 001°20'0 0.0
2016-Apr-30 04:24N 51°07' E 001°20'1012.5
2016-Apr-30 03:33N 51°05' E 001°36'1111.5
2016-Apr-30 02:34N 50°58' E 001°51'0 0.0
2016-Apr-30 01:34N 50°58' E 001°51'1414.1
2016-Apr-30 00:33N 51°01' E 001°29'8 6.1
2016-Apr-29 23:12N 51°07' E 001°20'812.2
2016-Apr-29 22:33N 51°06' E 001°32'1413.9
2016-Apr-29 21:33N 50°58' E 001°51'4 4.1
2016-Apr-29 20:33N 50°58' E 001°45'1818.0
2016-Apr-29 19:33N 51°07' E 001°20'2 1.7
2016-Apr-29 18:33N 51°07' E 001°23'1817.6
2016-Apr-29 17:34N 50°58' E 001°47'3 3.1
2016-Apr-29 16:33N 50°58' E 001°52'1515.5
2016-Apr-29 15:33N 51°04' E 001°29'7 6.6
2016-Apr-29 14:32N 51°07' E 001°20'1111.0
2016-Apr-29 13:33N 51°03' E 001°35'1111.2
2016-Apr-29 12:33N 50°58' E 001°52'3 2.5
2016-Apr-29 11:33N 50°58' E 001°48'1717.4
2016-Apr-29 10:33N 51°06' E 001°23'2 2.2
2016-Apr-29 09:32N 51°07' E 001°20'1515.0
2016-Apr-29 08:33N 50°60' E 001°40'7 7.2
2016-Apr-29 07:33N 50°58' E 001°51'6 5.8
2016-Apr-29 06:34N 50°58' E 001°42'17 7.5
2016-Apr-29 04:21N 51°07' E 001°20'911.9
2016-Apr-29 03:33N 51°04' E 001°34'1212.2
2016-Apr-29 02:33N 50°58' E 001°51'0 0.0
2016-Apr-29 01:33N 50°58' E 001°51'1110.9
2016-Apr-29 00:33N 50°59' E 001°34'12 3.9
2016-Apr-28 21:33N 51°07' E 001°20'1 0.3
2016-Apr-28 19:33N 51°07' E 001°21'1817.9
2016-Apr-28 18:33N 50°58' E 001°45'4 3.9
2016-Apr-28 17:33N 50°58' E 001°52'1211.7
2016-Apr-28 16:34N 50°60' E 001°33'1110.5
2016-Apr-28 15:29N 51°07' E 001°20'2 1.7
2016-Apr-28 14:33N 51°07' E 001°23'1817.7
2016-Apr-28 13:33N 50°58' E 001°47'3 2.9
2016-Apr-28 12:33N 50°58' E 001°51'9 8.6
2016-Apr-28 11:34N 50°59' E 001°38'1413.6
2016-Apr-28 10:33N 51°07' E 001°20'1 0.5
2016-Apr-28 09:33N 51°07' E 001°20'1716.9
2016-Apr-28 08:33N 50°59' E 001°43'5 5.4
2016-Apr-28 07:33N 50°58' E 001°52'7 7.3
2016-Apr-28 06:33N 50°59' E 001°40'15 3.7
2016-Apr-28 02:25N 51°07' E 001°20'0 0.0
2016-Apr-28 01:30N 51°07' E 001°20'0 0.0
2016-Apr-28 00:26N 51°07' E 001°20'8 9.7
2016-Apr-27 23:33N 51°04' E 001°32'1312.8
2016-Apr-27 22:32N 50°58' E 001°51'3 3.1
2016-Apr-27 21:33N 50°58' E 001°46'1817.9
2016-Apr-27 20:33N 51°07' E 001°22'1 1.0
2016-Apr-27 19:31N 51°07' E 001°20'1414.8
2016-Apr-27 18:33N 51°01' E 001°40'7 7.2
2016-Apr-27 17:33N 50°58' E 001°51'1111.3
2016-Apr-27 16:34N 51°01' E 001°34'11 5.2
2016-Apr-27 14:31N 51°07' E 001°20'1212.1
2016-Apr-27 13:33N 51°02' E 001°36'1010.3
2016-Apr-27 12:33N 50°58' E 001°52'0 0.4
2016-Apr-27 11:33N 50°58' E 001°51'1616.3
2016-Apr-27 10:33N 51°04' E 001°27'5 4.8
2016-Apr-27 09:26N 51°07' E 001°20'1415.6
2016-Apr-27 08:33N 51°01' E 001°40'8 7.8
2016-Apr-27 07:33N 50°58' E 001°51'4 4.1
2016-Apr-27 06:33N 50°58' E 001°44'1817.8
2016-Apr-27 05:33N 51°07' E 001°20'0 0.0
2016-Apr-27 04:18N 51°07' E 001°20'912.1
2016-Apr-27 03:33N 51°03' E 001°33'1312.6
2016-Apr-27 02:34N 50°58' E 001°51'0 0.0
2016-Apr-27 01:33N 50°58' E 001°51'1717.2
2016-Apr-27 00:33N 51°04' E 001°26'5 4.3
2016-Apr-26 23:28N 51°07' E 001°20'1213.6
2016-Apr-26 22:33N 51°01' E 001°37'9 9.3
2016-Apr-26 21:33N 50°58' E 001°51'8 7.9
2016-Apr-26 20:33N 50°58' E 001°38'1514.4
2016-Apr-26 19:32N 51°07' E 001°20'4 3.7
2016-Apr-26 18:33N 51°07' E 001°26'1717.5
2016-Apr-26 17:33N 50°58' E 001°50'1 1.1
2016-Apr-26 16:33N 50°58' E 001°52'1515.2
2016-Apr-26 15:33N 51°03' E 001°29'7 6.3
2016-Apr-26 14:26N 51°07' E 001°20'1011.2
2016-Apr-26 13:33N 51°03' E 001°34'1212.2
2016-Apr-26 12:33N 50°58' E 001°52'1 0.5
2016-Apr-26 11:33N 50°58' E 001°51'1515.4
2016-Apr-26 10:33N 51°03' E 001°28'6 4.9
2016-Apr-26 09:15N 51°07' E 001°20'1014.2
2016-Apr-26 08:33N 51°03' E 001°34'1211.6
2016-Apr-26 07:33N 50°58' E 001°51'4 4.1
2016-Apr-26 06:33N 50°58' E 001°45'1817.9
2016-Apr-26 05:33N 51°07' E 001°20'0 0.1
2016-Apr-26 04:15N 51°07' E 001°20'912.9
2016-Apr-26 03:33N 51°05' E 001°34'1313.1
2016-Apr-26 02:33N 50°58' E 001°51'0 0.0
2016-Apr-26 01:33N 50°58' E 001°51'1616.2
2016-Apr-26 00:33N 51°04' E 001°27'6 4.8
2016-Apr-25 23:21N 51°07' E 001°20'1113.5
2016-Apr-25 22:33N 51°04' E 001°36'1110.9
2016-Apr-25 21:33N 50°58' E 001°51'4 3.5
2016-Apr-25 20:33N 50°58' E 001°45'1817.7
2016-Apr-25 19:33N 51°07' E 001°21'1 0.8
2016-Apr-25 18:33N 51°07' E 001°20'1717.0
2016-Apr-25 17:33N 50°59' E 001°43'5 5.3
2016-Apr-25 16:33N 50°58' E 001°52'1212.1
2016-Apr-25 15:33N 51°00' E 001°33'1110.3
2016-Apr-25 14:30N 51°07' E 001°20'6 6.7
2016-Apr-25 13:33N 51°05' E 001°30'1515.5
2016-Apr-25 12:33N 50°58' E 001°51'0 0.1
2016-Apr-25 11:33N 50°58' E 001°51'1717.5
2016-Apr-25 10:33N 51°05' E 001°26'4 4.3
2016-Apr-25 09:32N 51°07' E 001°20'1515.2
2016-Apr-25 08:33N 50°60' E 001°41'7 7.1
2016-Apr-25 07:33N 50°58' E 001°52'5 5.4
2016-Apr-25 06:33N 50°58' E 001°43'1716.0
2016-Apr-25 05:29N 51°07' E 001°20'0 0.0
2016-Apr-25 04:32N 51°07' E 001°20'8 8.6
2016-Apr-25 03:34N 51°05' E 001°33'1313.1
2016-Apr-25 02:33N 50°58' E 001°51'0 0.0
2016-Apr-25 01:33N 50°58' E 001°51'1414.5
2016-Apr-25 00:33N 51°02' E 001°30'8 7.7
2016-Apr-24 23:33N 51°07' E 001°20'8 8.5
2016-Apr-24 22:33N 51°04' E 001°32'1313.2
2016-Apr-24 21:33N 50°58' E 001°51'0 0.2
2016-Apr-24 20:34N 50°58' E 001°51'1616.1
2016-Apr-24 19:33N 51°04' E 001°27'6 5.2
2016-Apr-24 18:29N 51°07' E 001°20'1011.4
2016-Apr-24 17:34N 51°03' E 001°35'1211.5
2016-Apr-24 16:33N 50°58' E 001°52'8 7.6
2016-Apr-24 15:33N 50°58' E 001°40'1510.5
2016-Apr-24 14:06N 51°07' E 001°20'610.6
2016-Apr-24 13:33N 51°05' E 001°29'1615.8
2016-Apr-24 12:33N 50°58' E 001°51'1 1.4
2016-Apr-24 11:33N 50°58' E 001°49'1717.0
2016-Apr-24 10:33N 51°05' E 001°24'4 3.4
2016-Apr-24 09:30N 51°07' E 001°20'1414.4
2016-Apr-24 08:33N 51°01' E 001°39'8 8.1
2016-Apr-24 07:33N 50°58' E 001°51'9 8.7
2016-Apr-24 06:33N 50°60' E 001°38'1312.6
2016-Apr-24 05:30N 51°07' E 001°20'0 0.0
2016-Apr-24 04:33N 51°07' E 001°20'0 0.0
2016-Apr-24 03:32N 51°07' E 001°20'0 0.0
2016-Apr-24 02:29N 51°07' E 001°20'0 0.0
2016-Apr-24 01:04N 51°07' E 001°20'0 0.0
2016-Apr-24 00:31N 51°07' E 001°20'0 0.0
2016-Apr-23 23:31N 51°07' E 001°20'0 0.0
2016-Apr-23 22:29N 51°07' E 001°20'0 0.0
2016-Apr-23 21:32N 51°07' E 001°20'0 0.0
2016-Apr-23 20:26N 51°07' E 001°20'0 0.0
2016-Apr-23 19:32N 51°07' E 001°20'1 0.9
2016-Apr-23 18:34N 51°07' E 001°22'1918.8
2016-Apr-23 17:34N 50°58' E 001°48'2 2.5
2016-Apr-23 16:33N 50°58' E 001°52'1515.1
2016-Apr-23 15:34N 51°04' E 001°30'7 6.2
2016-Apr-23 14:27N 51°07' E 001°20'1214.1
2016-Apr-23 13:33N 51°02' E 001°38'9 9.4
2016-Apr-23 12:33N 50°58' E 001°52'3 3.0
2016-Apr-23 11:33N 50°58' E 001°47'1918.9
2016-Apr-23 10:33N 51°07' E 001°21'0 0.4
2016-Apr-23 09:32N 51°07' E 001°20'1515.6
2016-Apr-23 08:33N 50°60' E 001°41'7 6.9
2016-Apr-23 07:34N 50°58' E 001°52'7 6.9
2016-Apr-23 06:34N 50°58' E 001°41'1615.1
2016-Apr-23 05:30N 51°07' E 001°20'0 0.0
2016-Apr-23 04:23N 51°07' E 001°20'910.6
2016-Apr-23 03:34N 51°04' E 001°33'1312.5
2016-Apr-23 02:32N 50°58' E 001°51'3 2.7
2016-Apr-23 01:33N 50°58' E 001°47'1918.9
2016-Apr-23 00:33N 51°07' E 001°21'0 0.2
2016-Apr-22 23:33N 51°07' E 001°20'1616.5
2016-Apr-22 22:34N 50°59' E 001°43'5 5.4
2016-Apr-22 21:33N 50°58' E 001°51'10 9.8
2016-Apr-22 20:33N 50°59' E 001°36'1312.4
2016-Apr-22 19:31N 51°07' E 001°20'4 4.5
2016-Apr-22 18:33N 51°06' E 001°27'1817.5
2016-Apr-22 17:34N 50°58' E 001°52'1 0.7
2016-Apr-22 16:33N 50°58' E 001°50'1716.8
2016-Apr-22 15:34N 51°05' E 001°26'4 3.9
2016-Apr-22 14:25N 51°07' E 001°20'1011.3
2016-Apr-22 13:33N 51°04' E 001°35'1212.3
2016-Apr-22 12:33N 50°58' E 001°52'2 2.2
2016-Apr-22 11:33N 50°58' E 001°48'1717.0
2016-Apr-22 10:33N 51°06' E 001°24'3 2.8
2016-Apr-22 09:29N 51°07' E 001°20'1313.7
2016-Apr-22 08:34N 51°02' E 001°38'9 9.0
2016-Apr-22 07:33N 50°58' E 001°51'7 6.6
2016-Apr-22 06:33N 50°58' E 001°41'1612.9
2016-Apr-22 05:20N 51°07' E 001°20'0 0.0
2016-Apr-22 04:32N 51°07' E 001°20'8 8.6
2016-Apr-22 03:33N 51°04' E 001°32'1313.3
2016-Apr-22 02:33N 50°58' E 001°51'1 0.8
2016-Apr-22 01:33N 50°58' E 001°50'1818.4
2016-Apr-22 00:33N 51°06' E 001°23'2 2.4
2016-Apr-21 23:34N 51°07' E 001°20'1717.2
2016-Apr-21 22:34N 50°59' E 001°44'5 4.2
2016-Apr-21 21:27N 50°58' E 001°51'1214.0
2016-Apr-21 20:34N 51°01' E 001°32'10 6.8
2016-Apr-21 19:05N 51°07' E 001°20'612.1
2016-Apr-21 18:34N 51°05' E 001°29'1615.5
2016-Apr-21 17:33N 50°58' E 001°52'2 1.7
2016-Apr-21 16:33N 50°58' E 001°49'1716.8
2016-Apr-21 15:33N 51°05' E 001°24'4 3.4
2016-Apr-21 14:31N 51°07' E 001°20'1515.8
2016-Apr-21 13:33N 51°00' E 001°41'7 7.0
2016-Apr-21 12:34N 50°58' E 001°52'10 9.6
2016-Apr-21 11:33N 51°01' E 001°37'13 6.3
2016-Apr-21 09:33N 51°07' E 001°20'1515.0
2016-Apr-21 08:34N 50°60' E 001°41'7 6.8
2016-Apr-21 07:33N 50°58' E 001°51'8 8.2
2016-Apr-21 06:33N 50°59' E 001°38'14 7.0
2016-Apr-21 04:32N 51°07' E 001°20'1212.9
2016-Apr-21 03:34N 51°01' E 001°37'9 9.2
2016-Apr-21 02:33N 50°58' E 001°51'5 4.9
2016-Apr-21 01:34N 50°58' E 001°44'1717.4
2016-Apr-21 00:34N 51°07' E 001°20'0 0.4
2016-Apr-20 23:34N 51°07' E 001°21'1817.6
2016-Apr-20 22:33N 50°58' E 001°45'4 3.9
2016-Apr-20 21:33N 50°58' E 001°51'1111.3
2016-Apr-20 20:33N 51°01' E 001°34'11 9.5
2016-Apr-20 19:25N 51°07' E 001°20'7 7.7
2016-Apr-20 18:33N 51°05' E 001°30'1514.9
2016-Apr-20 17:31N 50°58' E 001°52'  

Dump ship's entire track history